Time;durP1;ratioP1;P1;durP2;ratioP2;P2;SDS_P1;SDS_P2;PMS_P1;PMS_P2;Temp;Humidity;BMP_temperature;BMP_pressure;BME280_temperature;BME280_humidity;BME280_pressure;Samples;Min_cycle;Max_cycle;Signal;HPM_P1;HPM_P2
2023/03/06 00:01:47;;;;;;;11.33;6.10;;;2.00;99.90;;;;;;5033931;28;20198;-81
2023/03/06 00:04:16;;;;;;;12.53;6.47;;;2.00;99.90;;;;;;5034210;28;20231;-81
2023/03/06 00:06:41;;;;;;;11.10;6.40;;;1.90;99.90;;;;;;5036382;28;20209;-81
2023/03/06 00:09:08;;;;;;;11.13;6.77;;;1.90;99.90;;;;;;5037806;28;20193;-81
2023/03/06 00:11:34;;;;;;;11.10;6.67;;;1.90;99.90;;;;;;5055581;28;20264;-81
2023/03/06 00:13:59;;;;;;;10.83;6.07;;;1.90;99.90;;;;;;5055279;28;20205;-81
2023/03/06 00:16:25;;;;;;;10.00;6.27;;;1.80;99.90;;;;;;5037716;28;20206;-81
2023/03/06 00:18:51;;;;;;;10.27;6.80;;;1.80;99.90;;;;;;5037301;28;20165;-81
2023/03/06 00:21:17;;;;;;;12.23;6.97;;;1.80;99.90;;;;;;5055057;28;20173;-81
2023/03/06 00:23:42;;;;;;;11.53;6.63;;;1.80;99.90;;;;;;5037444;28;20228;-81
2023/03/06 00:26:08;;;;;;;13.90;7.47;;;1.70;99.90;;;;;;5037066;28;20288;-81
2023/03/06 00:28:34;;;;;;;12.27;6.80;;;1.70;99.90;;;;;;5037171;28;20170;-81
2023/03/06 00:31:00;;;;;;;12.43;6.63;;;1.70;99.90;;;;;;5054829;28;20215;-82
2023/03/06 00:33:26;;;;;;;12.23;6.83;;;1.60;99.90;;;;;;5037068;28;20173;-81
2023/03/06 00:35:51;;;;;;;13.77;7.40;;;1.60;99.90;;;;;;5054966;28;20208;-81
2023/03/06 00:38:17;;;;;;;15.27;7.03;;;1.60;99.90;;;;;;5055196;28;20185;-81
2023/03/06 00:40:42;;;;;;;11.50;7.40;;;1.60;99.90;;;;;;5054492;28;20636;-81
2023/03/06 00:43:08;;;;;;;15.07;7.80;;;1.60;99.90;;;;;;5036825;28;20181;-82
2023/03/06 00:45:34;;;;;;;12.97;7.80;;;1.60;99.90;;;;;;5036583;28;20232;-81
2023/03/06 00:47:59;;;;;;;13.10;6.90;;;1.60;99.90;;;;;;5055148;28;20181;-81
2023/03/06 00:50:25;;;;;;;14.77;7.83;;;1.50;99.90;;;;;;5037069;28;20177;-81
2023/03/06 00:52:50;;;;;;;12.63;6.93;;;1.50;99.90;;;;;;5036991;28;20544;-81
2023/03/06 00:55:16;;;;;;;13.47;7.47;;;1.50;99.90;;;;;;5054305;28;20182;-81
2023/03/06 00:57:42;;;;;;;14.10;7.23;;;1.50;99.90;;;;;;5054499;28;20170;-81
2023/03/06 01:00:09;;;;;;;15.03;7.77;;;1.50;99.90;;;;;;5054000;28;20173;-81
2023/03/06 01:02:34;;;;;;;14.03;7.60;;;1.50;99.90;;;;;;5036537;28;20177;-81
2023/03/06 01:05:00;;;;;;;15.97;7.93;;;1.50;99.90;;;;;;5036412;28;20192;-81
2023/03/06 01:07:26;;;;;;;14.37;7.73;;;1.50;99.90;;;;;;5036625;28;20239;-81
2023/03/06 01:09:52;;;;;;;15.40;7.67;;;1.50;99.90;;;;;;5036514;28;20201;-81
2023/03/06 01:12:18;;;;;;;13.93;7.50;;;1.50;99.90;;;;;;5054173;28;20197;-81
2023/03/06 01:14:43;;;;;;;13.73;7.40;;;1.50;99.90;;;;;;5054591;28;20204;-81
2023/03/06 01:17:10;;;;;;;15.83;7.60;;;1.50;99.90;;;;;;5036201;28;20216;-81
2023/03/06 01:19:36;;;;;;;13.23;7.47;;;1.50;99.90;;;;;;5035373;28;20663;-78
2023/03/06 01:22:01;;;;;;;15.00;7.57;;;1.50;99.90;;;;;;5050991;28;20173;-81
2023/03/06 01:24:27;;;;;;;14.60;7.70;;;1.50;99.90;;;;;;5028066;28;20188;-81
2023/03/06 01:26:53;;;;;;;14.47;7.93;;;1.40;99.90;;;;;;5047766;28;20198;-81
2023/03/06 01:29:19;;;;;;;13.70;7.93;;;1.40;99.90;;;;;;5051812;28;20177;-81
2023/03/06 01:31:44;;;;;;;17.40;8.50;;;1.50;99.90;;;;;;5036098;28;20178;-81
2023/03/06 01:34:10;;;;;;;16.03;8.13;;;1.50;99.90;;;;;;5053664;28;20181;-81
2023/03/06 01:36:36;;;;;;;14.73;7.43;;;1.50;99.90;;;;;;5045453;28;20675;-83
2023/03/06 01:39:02;;;;;;;16.37;7.13;;;1.50;99.90;;;;;;5036084;28;20181;-81
2023/03/06 01:41:28;;;;;;;11.37;6.93;;;1.50;99.90;;;;;;5053455;28;20622;-83
2023/03/06 01:43:53;;;;;;;12.73;7.03;;;1.60;99.90;;;;;;5035853;28;20201;-82
2023/03/06 01:46:31;;;;;;;15.07;7.17;;;1.60;99.90;;;;;;5053380;28;20596;-82
2023/03/06 01:49:14;;;;;;;12.50;6.97;;;1.50;99.90;;;;;;5053415;28;20203;-81
2023/03/06 01:52:01;;;;;;;14.33;6.70;;;1.60;99.90;;;;;;5053430;28;20170;-81
2023/03/06 01:54:55;;;;;;;15.60;7.47;;;1.60;99.90;;;;;;5053380;28;20181;-82
2023/03/06 01:57:25;;;;;;;13.73;6.93;;;1.60;99.90;;;;;;5035338;28;20358;-82
2023/03/06 02:00:05;;;;;;;13.17;6.77;;;1.60;99.90;;;;;;5053015;28;20188;-81
2023/03/06 02:02:31;;;;;;;13.30;6.73;;;1.60;99.90;;;;;;5044702;28;20258;-82
2023/03/06 02:04:58;;;;;;;15.33;7.30;;;1.50;99.90;;;;;;5053053;28;20193;-82
2023/03/06 02:07:24;;;;;;;14.73;7.73;;;1.50;99.90;;;;;;5053391;28;20296;-81
2023/03/06 02:09:49;;;;;;;15.47;7.47;;;1.40;99.90;;;;;;5052920;28;20669;-82
2023/03/06 02:12:19;;;;;;;15.43;8.10;;;1.50;99.90;;;;;;5035198;28;20186;-83
2023/03/06 02:14:46;;;;;;;13.20;7.90;;;1.30;99.90;;;;;;5053164;28;20180;-81
2023/03/06 02:17:14;;;;;;;15.83;8.77;;;1.30;99.90;;;;;;5035087;28;20675;-81
2023/03/06 02:19:39;;;;;;;16.53;8.30;;;1.20;99.90;;;;;;5034835;28;20189;-82
2023/03/06 02:22:06;;;;;;;19.27;8.53;;;1.20;99.90;;;;;;5035181;28;20255;-81
2023/03/06 02:24:37;;;;;;;17.83;8.37;;;1.20;99.90;;;;;;5035253;28;20261;-81
2023/03/06 02:27:04;;;;;;;13.73;7.87;;;1.20;99.90;;;;;;5035150;28;20205;-81
2023/03/06 02:29:30;;;;;;;14.67;7.77;;;1.20;99.90;;;;;;5034581;28;20635;-82
2023/03/06 02:31:56;;;;;;;15.80;8.13;;;1.20;99.90;;;;;;5052354;28;20197;-81
2023/03/06 02:34:21;;;;;;;14.60;7.70;;;1.10;99.90;;;;;;5016755;28;20181;-81
2023/03/06 02:37:08;;;;;;;16.63;8.77;;;1.10;99.90;;;;;;5032614;28;20388;-81
2023/03/06 02:39:41;;;;;;;14.37;8.23;;;1.10;99.90;;;;;;5032523;28;20174;-82
2023/03/06 02:42:07;;;;;;;15.60;8.27;;;1.10;99.90;;;;;;5032787;28;20182;-79
2023/03/06 02:44:34;;;;;;;16.77;8.40;;;1.10;99.90;;;;;;5014805;28;20660;-82
2023/03/06 02:47:00;;;;;;;17.03;8.07;;;1.10;99.90;;;;;;5032406;28;20205;-81
2023/03/06 02:49:26;;;;;;;17.97;8.37;;;1.10;99.90;;;;;;5015103;28;20190;-81
2023/03/06 02:51:51;;;;;;;16.27;8.67;;;1.10;99.90;;;;;;5032572;28;20179;-81
2023/03/06 02:54:17;;;;;;;14.20;7.93;;;1.10;99.90;;;;;;5014900;28;20528;-82
2023/03/06 02:56:43;;;;;;;16.83;8.07;;;1.10;99.90;;;;;;5032290;28;20323;-82
2023/03/06 02:59:09;;;;;;;15.43;8.30;;;1.20;99.90;;;;;;5032646;28;20193;-84
2023/03/06 03:01:35;;;;;;;17.30;8.93;;;1.20;99.90;;;;;;5014470;28;20177;-82
2023/03/06 03:04:00;;;;;;;13.03;8.10;;;1.10;99.90;;;;;;5014463;28;20186;-82
2023/03/06 03:06:26;;;;;;;16.57;8.30;;;1.10;99.90;;;;;;5014563;28;20220;-82
2023/03/06 03:08:51;;;;;;;15.50;8.50;;;1.10;99.90;;;;;;5032422;28;20265;-84
2023/03/06 03:11:17;;;;;;;13.53;8.40;;;1.10;99.90;;;;;;5031958;28;20599;-82
2023/03/06 03:13:42;;;;;;;13.83;7.97;;;1.10;99.90;;;;;;5014554;28;20280;-82
2023/03/06 03:16:12;;;;;;;13.33;8.53;;;1.20;99.90;;;;;;5014420;28;20304;-82
2023/03/06 03:18:38;;;;;;;14.23;8.03;;;1.20;99.90;;;;;;5032415;28;20174;-82
2023/03/06 03:21:09;;;;;;;15.93;8.20;;;1.30;99.90;;;;;;5032288;28;20182;-83
2023/03/06 03:23:35;;;;;;;13.40;7.53;;;1.30;99.90;;;;;;5032295;28;20177;-82
2023/03/06 03:26:16;;;;;;;13.60;8.00;;;1.30;99.90;;;;;;5014450;28;20263;-82
2023/03/06 03:28:42;;;;;;;15.07;8.23;;;1.40;99.90;;;;;;5014489;28;20184;-82
2023/03/06 03:31:09;;;;;;;12.00;7.60;;;1.40;99.90;;;;;;5014153;28;20185;-82
2023/03/06 03:33:35;;;;;;;11.27;7.40;;;1.40;99.90;;;;;;5014516;28;20184;-82
2023/03/06 03:36:02;;;;;;;13.50;8.37;;;1.40;99.90;;;;;;5031897;28;20198;-82
2023/03/06 03:38:29;;;;;;;15.27;8.03;;;1.30;99.90;;;;;;5014480;28;20653;-82
2023/03/06 03:40:54;;;;;;;11.90;8.10;;;1.30;99.90;;;;;;5033403;28;20170;-82
2023/03/06 03:43:20;;;;;;;13.70;8.13;;;1.30;99.90;;;;;;5036187;28;20184;-82
2023/03/06 03:45:45;;;;;;;14.57;8.40;;;1.30;99.90;;;;;;5018405;28;20227;-81
2023/03/06 03:48:11;;;;;;;12.93;8.07;;;1.30;99.90;;;;;;5036231;28;20220;-82
2023/03/06 03:50:37;;;;;;;13.97;8.13;;;1.40;99.90;;;;;;5018244;28;20213;-81
2023/03/06 03:53:02;;;;;;;14.47;8.60;;;1.40;99.90;;;;;;5018562;28;20178;-81
2023/03/06 03:55:28;;;;;;;14.30;8.17;;;1.40;99.90;;;;;;5018006;28;20272;-82
2023/03/06 03:57:54;;;;;;;13.53;7.90;;;1.40;99.90;;;;;;5018496;28;20175;-83
2023/03/06 04:00:20;;;;;;;14.00;8.90;;;1.30;99.90;;;;;;5018102;28;20205;-83
2023/03/06 04:02:46;;;;;;;13.30;8.80;;;1.30;99.90;;;;;;5035832;28;20181;-82
2023/03/06 04:05:15;;;;;;;13.07;8.30;;;1.30;99.90;;;;;;5035843;28;20166;-82
2023/03/06 04:07:42;;;;;;;13.53;8.60;;;1.30;99.90;;;;;;5018080;28;20198;-81
2023/03/06 04:10:09;;;;;;;13.90;8.33;;;1.30;99.90;;;;;;5035708;28;20185;-82
2023/03/06 04:12:36;;;;;;;13.57;8.60;;;1.30;99.90;;;;;;5035555;28;20252;-81
2023/03/06 04:15:02;;;;;;;14.30;8.37;;;1.40;99.90;;;;;;5036095;28;20202;-81
2023/03/06 04:17:28;;;;;;;15.50;8.40;;;1.30;99.90;;;;;;5035508;28;20210;-81
2023/03/06 04:19:53;;;;;;;12.60;8.07;;;1.30;99.90;;;;;;5035344;28;20174;-81
2023/03/06 04:22:19;;;;;;;14.57;8.80;;;1.30;99.90;;;;;;5017666;28;20167;-81
2023/03/06 04:24:47;;;;;;;14.97;8.93;;;1.30;99.90;;;;;;5017562;28;20178;-81
2023/03/06 04:27:13;;;;;;;13.73;8.40;;;1.30;99.90;;;;;;5023837;28;20201;-81
2023/03/06 04:29:38;;;;;;;16.73;9.33;;;1.30;99.90;;;;;;5046915;28;20265;-81
2023/03/06 04:32:04;;;;;;;11.80;7.77;;;1.30;99.90;;;;;;5037284;28;20177;-81
2023/03/06 04:34:30;;;;;;;17.43;9.60;;;1.30;99.90;;;;;;5037193;28;20702;-81
2023/03/06 04:36:55;;;;;;;15.20;9.00;;;1.30;99.90;;;;;;5028888;28;20304;-81
2023/03/06 04:39:21;;;;;;;14.10;9.40;;;1.30;99.90;;;;;;5054913;28;20174;-81
2023/03/06 04:41:47;;;;;;;13.23;8.40;;;1.30;99.90;;;;;;5054658;28;20173;-81
2023/03/06 04:44:12;;;;;;;14.90;9.13;;;1.30;99.90;;;;;;5036861;28;20196;-81
2023/03/06 04:46:38;;;;;;;15.87;9.27;;;1.30;99.90;;;;;;5054793;28;20208;-81
2023/03/06 04:49:03;;;;;;;16.83;9.30;;;1.20;99.90;;;;;;5036992;28;20205;-83
2023/03/06 04:51:29;;;;;;;13.30;8.23;;;1.20;99.90;;;;;;5054113;28;20169;-81
2023/03/06 04:53:54;;;;;;;14.27;8.83;;;1.20;99.90;;;;;;5036923;28;20169;-81
2023/03/06 04:56:20;;;;;;;13.43;8.43;;;1.10;99.90;;;;;;5054325;28;20208;-81
2023/03/06 04:58:46;;;;;;;14.80;8.70;;;1.20;99.90;;;;;;5036793;28;20174;-83
2023/03/06 05:01:11;;;;;;;17.10;8.73;;;1.20;99.90;;;;;;5054380;28;20256;-81
2023/03/06 05:03:37;;;;;;;15.43;8.80;;;1.20;99.90;;;;;;5036746;28;20717;-81
2023/03/06 05:06:03;;;;;;;12.80;7.97;;;1.30;99.90;;;;;;5083981;22;20184;-81
2023/03/06 05:08:29;;;;;;;14.23;8.70;;;1.30;99.90;;;;;;5077002;28;20286;-81
2023/03/06 05:10:57;;;;;;;13.73;8.30;;;1.30;99.90;;;;;;5094977;28;20224;-82
2023/03/06 05:13:24;;;;;;;13.43;8.03;;;1.30;99.90;;;;;;5095123;28;20203;-81
2023/03/06 05:15:49;;;;;;;12.83;8.60;;;1.30;99.90;;;;;;5076741;28;20677;-81
2023/03/06 05:18:15;;;;;;;14.20;7.97;;;1.30;99.90;;;;;;5076993;28;20172;-81
2023/03/06 05:20:41;;;;;;;14.10;8.10;;;1.30;99.90;;;;;;5094540;28;20164;-81
2023/03/06 05:23:06;;;;;;;15.07;8.57;;;1.30;99.90;;;;;;5077304;28;20172;-81
2023/03/06 05:25:32;;;;;;;15.30;8.80;;;1.30;99.90;;;;;;5076937;28;20226;-81
2023/03/06 05:27:57;;;;;;;13.23;9.00;;;1.30;99.90;;;;;;5094954;28;20196;-81
2023/03/06 05:30:23;;;;;;;15.90;9.13;;;1.30;99.90;;;;;;5076841;28;20168;-82
2023/03/06 05:32:49;;;;;;;15.07;8.47;;;1.30;99.90;;;;;;5095198;28;20168;-81
2023/03/06 05:35:17;;;;;;;13.60;8.40;;;1.20;99.90;;;;;;5076574;28;20588;-81
2023/03/06 05:37:43;;;;;;;15.67;9.17;;;1.30;99.90;;;;;;5095189;28;20716;-82
2023/03/06 05:40:09;;;;;;;13.30;9.00;;;1.30;99.90;;;;;;5095803;28;20164;-82
2023/03/06 05:42:35;;;;;;;15.63;9.13;;;1.30;99.90;;;;;;5058255;28;20218;-82
2023/03/06 05:45:01;;;;;;;17.30;9.63;;;1.30;99.90;;;;;;5058243;28;20169;-82
2023/03/06 05:47:27;;;;;;;17.33;9.73;;;1.30;99.90;;;;;;5058194;28;20197;-82
2023/03/06 05:49:52;;;;;;;18.27;9.87;;;1.30;99.90;;;;;;5057834;28;20205;-83
2023/03/06 05:52:18;;;;;;;14.83;9.17;;;1.20;99.90;;;;;;5058903;28;20226;-84
2023/03/06 05:54:48;;;;;;;15.90;10.33;;;1.30;99.90;;;;;;5059659;28;20179;-82
2023/03/06 05:57:13;;;;;;;17.03;9.77;;;1.30;99.90;;;;;;5079175;28;20220;-81
2023/03/06 05:59:39;;;;;;;16.80;9.83;;;1.30;99.90;;;;;;5059803;28;20173;-82
2023/03/06 06:02:04;;;;;;;15.73;9.50;;;1.30;99.90;;;;;;5077464;28;20195;-83
2023/03/06 06:04:30;;;;;;;14.27;9.53;;;1.30;99.90;;;;;;5058125;28;20177;-83
2023/03/06 06:06:58;;;;;;;19.43;10.73;;;1.30;99.90;;;;;;5058621;28;20223;-82
2023/03/06 06:09:25;;;;;;;16.77;10.33;;;1.40;99.90;;;;;;5058108;28;20184;-81
2023/03/06 06:11:57;;;;;;;17.53;10.20;;;1.60;99.90;;;;;;5055766;28;20180;-81
2023/03/06 06:14:22;;;;;;;16.97;10.20;;;1.70;99.90;;;;;;5073603;28;20181;-81
2023/03/06 06:16:49;;;;;;;16.83;10.17;;;2.00;99.90;;;;;;5076131;28;20262;-79
2023/03/06 06:19:17;;;;;;;15.17;10.10;;;2.00;99.90;;;;;;5058258;28;20226;-81
2023/03/06 06:21:52;;;;;;;12.90;9.13;;;2.10;99.90;;;;;;5059430;28;20201;-82
2023/03/06 06:24:20;;;;;;;14.23;9.63;;;2.00;99.90;;;;;;5077525;28;20187;-83
2023/03/06 06:26:49;;;;;;;13.63;9.50;;;1.80;99.90;;;;;;5077258;28;20284;-83
2023/03/06 06:29:15;;;;;;;13.63;9.07;;;1.60;99.90;;;;;;5077533;28;20201;-82
2023/03/06 06:31:40;;;;;;;14.27;9.63;;;1.60;99.90;;;;;;5077615;28;20176;-84
2023/03/06 06:34:07;;;;;;;15.13;9.77;;;1.50;99.90;;;;;;5078279;28;20180;-85
2023/03/06 06:36:33;;;;;;;14.93;10.13;;;1.50;99.90;;;;;;5059264;28;20217;-83
2023/03/06 06:38:59;;;;;;;13.80;8.57;;;1.50;99.90;;;;;;5060239;28;20180;-82
2023/03/06 06:41:25;;;;;;;12.30;7.97;;;1.50;99.90;;;;;;5078076;28;20173;-84
2023/03/06 06:43:51;;;;;;;10.20;7.07;;;1.50;99.90;;;;;;5059681;28;20173;-84
2023/03/06 06:46:16;;;;;;;9.87;7.13;;;1.50;99.90;;;;;;5060366;28;20228;-81
2023/03/06 06:48:42;;;;;;;9.30;6.77;;;1.50;99.90;;;;;;5080388;28;20173;-82
2023/03/06 06:51:07;;;;;;;8.33;6.40;;;1.50;99.90;;;;;;5078768;28;20185;-83
2023/03/06 06:53:33;;;;;;;9.13;5.77;;;1.40;99.90;;;;;;5057860;28;20177;-82
2023/03/06 06:55:59;;;;;;;7.27;5.80;;;1.40;99.90;;;;;;5059640;28;20276;-83
2023/03/06 06:58:25;;;;;;;7.80;5.67;;;1.50;99.90;;;;;;5079350;28;20644;-80
2023/03/06 07:00:51;;;;;;;7.27;5.67;;;1.50;99.90;;;;;;5077587;28;20173;-81
2023/03/06 07:03:17;;;;;;;7.77;5.60;;;1.50;99.90;;;;;;5058656;28;20192;-82
2023/03/06 07:05:42;;;;;;;7.33;5.53;;;1.50;99.90;;;;;;5059825;28;20177;-82
2023/03/06 07:08:08;;;;;;;7.77;5.80;;;1.50;99.90;;;;;;5078978;28;20185;-80
2023/03/06 07:10:34;;;;;;;6.90;5.53;;;1.50;99.90;;;;;;5077174;28;20522;-81
2023/03/06 07:13:01;;;;;;;8.63;6.00;;;1.50;99.90;;;;;;5060776;28;20177;-82
2023/03/06 07:15:28;;;;;;;10.70;7.67;;;1.60;99.90;;;;;;5057792;28;20205;-80
2023/03/06 07:17:54;;;;;;;8.93;6.17;;;1.60;99.90;;;;;;5073538;28;20208;-83
2023/03/06 07:20:20;;;;;;;11.03;7.60;;;1.70;99.90;;;;;;5075282;28;20641;-80
2023/03/06 07:22:46;;;;;;;9.90;6.97;;;1.70;99.90;;;;;;5084504;28;20207;-84
2023/03/06 07:25:12;;;;;;;8.83;6.43;;;1.60;99.90;;;;;;5057830;28;20548;-82
2023/03/06 07:27:37;;;;;;;11.47;7.27;;;1.60;99.90;;;;;;5062485;28;20200;-84
2023/03/06 07:30:04;;;;;;;11.83;7.20;;;1.70;99.90;;;;;;5071707;28;20173;-83
2023/03/06 07:32:30;;;;;;;9.60;6.23;;;1.70;99.90;;;;;;5053193;28;20286;-82
2023/03/06 07:34:55;;;;;;;10.87;7.60;;;1.80;99.90;;;;;;5070822;28;20199;-83
2023/03/06 07:37:21;;;;;;;11.33;7.03;;;1.90;99.90;;;;;;5055420;28;20341;-82
2023/03/06 07:39:47;;;;;;;10.83;6.87;;;1.90;99.90;;;;;;5065350;28;20521;-83
2023/03/06 07:42:13;;;;;;;10.27;6.80;;;2.00;99.90;;;;;;5091885;28;20259;-82
2023/03/06 07:44:39;;;;;;;9.13;6.47;;;2.00;99.90;;;;;;5091977;28;20647;-84
2023/03/06 07:47:05;;;;;;;9.33;6.63;;;2.00;99.90;;;;;;5088188;28;20197;-82
2023/03/06 07:49:31;;;;;;;10.43;7.30;;;2.10;99.90;;;;;;5065053;28;20202;-83
2023/03/06 07:51:57;;;;;;;11.40;7.67;;;2.10;99.90;;;;;;5067098;28;20204;-83
2023/03/06 07:54:24;;;;;;;10.37;7.03;;;2.10;99.90;;;;;;5070222;28;20180;-83
2023/03/06 07:56:50;;;;;;;10.00;6.67;;;2.10;99.90;;;;;;5067309;28;20228;-82
2023/03/06 07:59:15;;;;;;;9.77;6.87;;;2.00;99.90;;;;;;5091876;28;20682;-83
2023/03/06 08:01:41;;;;;;;11.73;7.80;;;2.00;99.90;;;;;;5073543;28;20255;-82
2023/03/06 08:04:07;;;;;;;11.33;7.00;;;2.00;99.90;;;;;;5073532;28;20175;-82
2023/03/06 08:06:32;;;;;;;10.17;7.20;;;2.00;99.90;;;;;;5073437;28;20211;-82
2023/03/06 08:08:58;;;;;;;10.67;7.43;;;2.00;99.90;;;;;;5073779;28;20172;-83
2023/03/06 08:11:27;;;;;;;9.97;7.00;;;2.10;99.90;;;;;;5091549;28;20184;-82
2023/03/06 08:13:54;;;;;;;11.13;7.10;;;2.10;99.90;;;;;;5083246;28;20250;-82
2023/03/06 08:16:21;;;;;;;11.33;7.20;;;2.10;99.90;;;;;;5073221;28;20204;-82
2023/03/06 08:18:46;;;;;;;10.50;7.20;;;2.10;99.90;;;;;;5073555;28;20172;-82
2023/03/06 08:21:15;;;;;;;11.67;7.40;;;2.00;99.90;;;;;;5073536;28;20176;-85
2023/03/06 08:23:41;;;;;;;10.77;7.17;;;2.00;99.90;;;;;;5073259;28;20263;-83
2023/03/06 08:26:12;;;;;;;9.60;7.13;;;1.90;99.90;;;;;;5073637;28;20224;-83
2023/03/06 08:28:38;;;;;;;9.57;6.30;;;1.90;99.90;;;;;;5077070;28;20647;-83
2023/03/06 08:31:20;;;;;;;10.67;7.50;;;1.80;99.90;;;;;;5094727;28;20186;-83
2023/03/06 08:33:46;;;;;;;9.73;7.10;;;1.80;99.90;;;;;;5077093;28;20172;-83
2023/03/06 08:36:12;;;;;;;9.93;6.67;;;1.70;99.90;;;;;;5063137;28;20234;-83
2023/03/06 08:38:37;;;;;;;10.60;7.50;;;1.70;99.90;;;;;;5069131;28;20184;-83
2023/03/06 08:41:03;;;;;;;9.23;6.40;;;1.80;99.90;;;;;;5091116;28;20218;-84
2023/03/06 08:43:29;;;;;;;11.03;6.60;;;1.80;99.90;;;;;;5070021;28;20263;-82
2023/03/06 08:45:56;;;;;;;12.17;7.67;;;1.80;99.90;;;;;;5091468;28;20169;-83
2023/03/06 08:48:21;;;;;;;9.50;6.77;;;1.80;99.90;;;;;;5074712;28;20232;-84
2023/03/06 08:50:47;;;;;;;10.73;6.77;;;1.80;99.90;;;;;;5074721;28;20200;-80
2023/03/06 08:53:13;;;;;;;11.60;7.23;;;1.90;99.90;;;;;;5076591;28;20184;-84
2023/03/06 08:55:38;;;;;;;9.93;7.13;;;1.80;99.90;;;;;;5078161;28;20172;-79
2023/03/06 08:58:04;;;;;;;12.17;7.50;;;1.90;99.90;;;;;;5082708;28;20219;-83
2023/03/06 09:00:31;;;;;;;18.50;9.03;;;2.00;99.90;;;;;;5083301;28;20175;-81
2023/03/06 09:02:57;;;;;;;19.60;11.13;;;2.00;99.90;;;;;;5084174;28;20172;-82
2023/03/06 09:05:23;;;;;;;27.60;13.57;;;2.00;99.90;;;;;;5105651;28;20642;-81
2023/03/06 09:07:48;;;;;;;18.37;9.83;;;2.10;99.90;;;;;;5100048;28;20568;-83
2023/03/06 09:10:16;;;;;;;19.70;10.33;;;2.10;99.90;;;;;;5099870;28;20187;-84
2023/03/06 09:12:42;;;;;;;24.97;11.80;;;2.10;99.90;;;;;;5076424;28;20176;-81
2023/03/06 09:15:09;;;;;;;15.43;9.23;;;2.20;99.90;;;;;;5095233;28;20203;-83
2023/03/06 09:17:34;;;;;;;14.83;9.03;;;2.20;99.90;;;;;;5093906;28;20228;-80
2023/03/06 09:20:00;;;;;;;12.80;8.37;;;2.20;99.90;;;;;;5094583;28;20230;-79
2023/03/06 09:22:25;;;;;;;19.20;9.97;;;2.30;99.90;;;;;;5094378;28;20636;-79
2023/03/06 09:24:51;;;;;;;15.13;8.90;;;2.30;99.90;;;;;;5094439;28;20266;-79
2023/03/06 09:27:17;;;;;;;16.67;9.97;;;2.30;99.90;;;;;;5093906;28;20192;-81
2023/03/06 09:29:42;;;;;;;18.53;10.00;;;2.30;99.90;;;;;;5094222;28;20172;-79
2023/03/06 09:32:08;;;;;;;21.37;11.00;;;2.30;99.90;;;;;;5094613;28;20176;-79
2023/03/06 09:34:34;;;;;;;34.83;14.93;;;2.40;99.90;;;;;;5094476;28;20168;-79
2023/03/06 09:37:02;;;;;;;28.03;13.27;;;2.40;99.90;;;;;;5075903;28;20713;-79
2023/03/06 09:39:27;;;;;;;40.00;15.93;;;2.50;99.90;;;;;;5093166;28;20606;-79
2023/03/06 09:41:55;;;;;;;22.13;11.43;;;2.50;99.90;;;;;;5075667;28;20260;-80
2023/03/06 09:44:30;;;;;;;12.70;8.10;;;2.40;99.90;;;;;;5094210;28;20255;-78
2023/03/06 09:47:14;;;;;;;13.40;7.90;;;2.50;99.90;;;;;;5093725;28;20188;-80
2023/03/06 09:49:49;;;;;;;17.20;9.27;;;2.40;99.90;;;;;;5075791;28;20245;-79
2023/03/06 09:52:28;;;;;;;13.23;7.80;;;2.50;99.90;;;;;;5075754;28;20571;-79
2023/03/06 09:55:23;;;;;;;13.27;8.37;;;2.50;99.90;;;;;;5075931;28;20164;-80
2023/03/06 09:57:51;;;;;;;22.07;13.73;;;2.60;99.90;;;;;;5073871;28;20212;-79
2023/03/06 10:00:23;;;;;;;16.97;11.63;;;2.70;99.90;;;;;;5075464;28;20165;-79
2023/03/06 10:02:55;;;;;;;13.27;7.90;;;2.70;99.90;;;;;;5075906;28;20203;-79
2023/03/06 10:05:34;;;;;;;11.90;7.43;;;2.80;99.90;;;;;;5075505;28;20172;-79
2023/03/06 10:08:16;;;;;;;13.30;7.70;;;3.00;99.90;;;;;;5075493;28;20212;-79
2023/03/06 10:10:47;;;;;;;11.47;6.87;;;3.10;99.90;;;;;;5075554;28;20173;-79
2023/03/06 10:13:57;;;;;;;11.00;6.33;;;3.20;99.90;;;;;;5075296;28;20175;-79
2023/03/06 10:16:31;;;;;;;10.93;6.80;;;3.20;99.90;;;;;;5093822;28;20200;-79
2023/03/06 10:19:30;;;;;;;10.73;6.67;;;3.20;99.90;;;;;;5075655;28;20180;-79
2023/03/06 10:22:27;;;;;;;12.17;6.93;;;3.20;99.90;;;;;;5075710;28;20305;-79
2023/03/06 10:25:09;;;;;;;13.77;7.97;;;3.20;99.90;;;;;;5046395;28;20291;-79
2023/03/06 10:27:55;;;;;;;12.80;7.90;;;3.20;99.90;;;;;;5072841;28;20181;-78
2023/03/06 10:30:47;;;;;;;12.90;8.10;;;3.30;99.90;;;;;;5072874;28;20189;-79
2023/03/06 10:33:39;;;;;;;11.83;7.37;;;3.40;99.90;;;;;;5072770;28;20184;-79
2023/03/06 10:36:05;;;;;;;13.37;8.20;;;3.40;99.90;;;;;;5071403;28;20292;-79
2023/03/06 10:38:30;;;;;;;12.80;8.50;;;3.60;99.90;;;;;;5055060;28;20264;-79
2023/03/06 10:41:34;;;;;;;12.33;6.83;;;3.70;99.90;;;;;;5054652;28;20215;-79
2023/03/06 10:44:00;;;;;;;11.50;6.80;;;3.70;99.90;;;;;;5070587;28;20244;-79
2023/03/06 10:46:28;;;;;;;11.67;7.43;;;3.60;99.90;;;;;;5054439;28;20279;-80
2023/03/06 10:49:00;;;;;;;11.47;6.30;;;3.60;99.90;;;;;;5070827;28;20181;-79
2023/03/06 10:51:27;;;;;;;11.83;6.93;;;3.50;99.90;;;;;;5071024;28;20263;-79
2023/03/06 10:53:58;;;;;;;12.37;8.00;;;3.40;99.90;;;;;;5072139;28;20231;-78
2023/03/06 10:56:36;;;;;;;12.10;7.60;;;3.40;99.90;;;;;;5070930;28;20205;-81
2023/03/06 10:59:10;;;;;;;13.73;8.50;;;3.40;99.90;;;;;;5072571;28;20195;-80
2023/03/06 11:01:37;;;;;;;13.50;8.53;;;3.40;99.90;;;;;;5072804;28;20224;-80
2023/03/06 11:04:22;;;;;;;15.53;9.17;;;3.40;99.90;;;;;;5071123;28;20168;-80
2023/03/06 11:07:03;;;;;;;14.83;10.43;;;3.50;99.90;;;;;;5055667;28;20258;-79
2023/03/06 11:09:28;;;;;;;14.00;8.93;;;3.50;99.90;;;;;;5054238;28;20659;-79
2023/03/06 11:12:20;;;;;;;12.83;7.57;;;3.60;99.90;;;;;;5072956;28;20178;-80
2023/03/06 11:14:45;;;;;;;15.83;9.37;;;3.60;99.90;;;;;;5072054;28;20178;-80
2023/03/06 11:17:28;;;;;;;14.40;9.23;;;3.40;99.90;;;;;;5072077;28;20210;-87
2023/03/06 11:20:26;;;;;;;15.93;8.47;;;3.40;99.90;;;;;;5071336;28;20176;-82
2023/03/06 11:23:06;;;;;;;14.57;8.33;;;3.50;99.90;;;;;;5038638;28;20702;-82
2023/03/06 11:25:37;;;;;;;13.30;7.47;;;4.00;99.90;;;;;;5055721;28;20173;-82
2023/03/06 11:28:19;;;;;;;15.87;10.50;;;4.10;99.90;;;;;;5071821;28;20191;-81
2023/03/06 11:30:52;;;;;;;14.47;8.33;;;4.30;99.90;;;;;;5056551;28;20698;-81
2023/03/06 11:33:38;;;;;;;15.53;9.50;;;4.20;99.90;;;;;;5073122;28;20197;-85
2023/03/06 11:36:14;;;;;;;25.93;12.97;;;4.20;99.90;;;;;;5075414;28;20211;-83
2023/03/06 11:38:48;;;;;;;15.37;9.83;;;4.00;99.90;;;;;;5076427;28;20220;-84
2023/03/06 11:41:46;;;;;;;15.00;8.70;;;3.70;99.90;;;;;;5074044;28;20174;-86
2023/03/06 11:44:24;;;;;;;14.53;8.43;;;3.70;99.90;;;;;;5071792;28;20190;-85
2023/03/06 11:47:05;;;;;;;16.40;9.30;;;3.70;99.90;;;;;;5071890;28;20283;-85
2023/03/06 11:49:38;;;;;;;17.63;9.90;;;3.60;99.90;;;;;;5054839;28;20206;-86
2023/03/06 11:52:11;;;;;;;22.63;11.30;;;3.60;99.90;;;;;;5070973;28;20170;-88
2023/03/06 11:54:37;;;;;;;17.27;9.20;;;3.50;99.90;;;;;;5053954;28;20173;-88
2023/03/06 11:57:16;;;;;;;24.90;10.73;;;3.40;99.90;;;;;;5071380;28;20216;-88
2023/03/06 11:59:49;;;;;;;18.37;9.13;;;3.40;99.90;;;;;;5053617;28;20166;-88
2023/03/06 12:02:23;;;;;;;18.67;9.07;;;3.40;99.90;;;;;;5055361;28;20169;-90
2023/03/06 12:05:13;;;;;;;14.07;8.13;;;3.50;99.90;;;;;;5074137;28;20198;-88
2023/03/06 12:08:04;;;;;;;31.73;13.73;;;3.50;99.90;;;;;;5057324;28;20217;-88
2023/03/06 12:10:43;;;;;;;14.13;8.30;;;3.40;99.90;;;;;;5057161;28;20208;-89
2023/03/06 12:13:18;;;;;;;16.57;9.17;;;3.50;99.90;;;;;;5075244;28;20223;-88
2023/03/06 12:16:14;;;;;;;15.20;8.77;;;3.50;99.90;;;;;;5057109;28;20174;-88
2023/03/06 12:18:52;;;;;;;16.13;9.73;;;3.50;99.90;;;;;;5057306;28;20703;-88
2023/03/06 12:21:35;;;;;;;16.73;8.80;;;3.60;99.90;;;;;;5074953;28;20169;-89
2023/03/06 12:24:08;;;;;;;19.63;11.37;;;3.60;99.90;;;;;;5074103;28;20268;-89
2023/03/06 12:26:53;;;;;;;25.27;13.63;;;3.60;99.90;;;;;;5056821;28;20202;-88
2023/03/06 12:29:59;;;;;;;24.37;10.83;;;3.50;99.90;;;;;;5056784;28;20719;-89
2023/03/06 12:32:30;;;;;;;19.97;10.73;;;3.50;99.90;;;;;;5040853;28;20183;-85
2023/03/06 12:34:59;;;;;;;22.40;11.37;;;3.50;99.90;;;;;;5074876;28;20182;-88
2023/03/06 12:37:46;;;;;;;23.93;11.83;;;3.70;99.90;;;;;;5056972;28;20204;-88
2023/03/06 12:40:42;;;;;;;22.70;10.97;;;3.70;99.90;;;;;;5056675;28;20174;-88
2023/03/06 12:43:41;;;;;;;21.13;10.43;;;3.70;99.90;;;;;;5056636;28;20185;-88
2023/03/06 12:46:15;;;;;;;24.90;11.20;;;3.80;99.90;;;;;;5056478;28;20263;-88
2023/03/06 12:48:45;;;;;;;14.77;8.53;;;3.90;99.90;;;;;;5074992;28;20172;-80
2023/03/06 12:51:15;;;;;;;16.53;9.00;;;4.30;99.90;;;;;;5075409;28;20178;-80
2023/03/06 12:53:42;;;;;;;12.27;7.10;;;4.90;99.90;;;;;;5075487;28;20171;-80
2023/03/06 12:56:12;;;;;;;11.73;7.57;;;5.10;99.90;;;;;;5075026;28;20740;-80
2023/03/06 12:58:46;;;;;;;13.90;8.37;;;5.10;99.90;;;;;;5059055;28;20178;-80